createdAt,value
2023-03-22T00:02:18.620Z,96167.72
2023-03-22T00:04:46.936Z,96159.13
2023-03-22T00:07:16.496Z,96164.38
2023-03-22T00:09:44.984Z,96168.50
2023-03-22T00:12:13.175Z,96161.41
2023-03-22T00:14:41.474Z,96161.91
2023-03-22T00:17:09.713Z,96156.75
2023-03-22T00:19:38.193Z,96148.53
2023-03-22T00:22:06.765Z,96146.03
2023-03-22T00:24:36.378Z,96141.41
2023-03-22T00:27:04.735Z,96144.88
2023-03-22T00:29:32.958Z,96132.56
2023-03-22T00:32:01.243Z,96133.16
2023-03-22T00:34:32.184Z,96139.72
2023-03-22T00:37:00.636Z,96132.97
2023-03-22T00:39:28.884Z,96134.13
2023-03-22T00:41:58.499Z,96122.91
2023-03-22T00:44:26.983Z,96122.91
2023-03-22T00:46:55.428Z,96114.38
2023-03-22T00:49:25.681Z,96115.84
2023-03-22T00:51:53.990Z,96104.41
2023-03-22T00:54:22.245Z,96112.28
2023-03-22T00:56:50.864Z,96102.81
2023-03-22T00:59:20.529Z,96108.69
2023-03-22T01:01:48.791Z,96103.75
2023-03-22T01:04:18.113Z,96099.44
2023-03-22T01:06:47.165Z,96097.50
2023-03-22T01:09:15.507Z,96100.44
2023-03-22T01:11:44.307Z,96099.84
2023-03-22T01:14:13.918Z,96104.28
2023-03-22T01:16:43.747Z,96105.59
2023-03-22T01:19:12.108Z,96113.94
2023-03-22T01:21:40.371Z,96113.38
2023-03-22T01:24:09.261Z,96110.16
2023-03-22T01:26:38.862Z,96116.50
2023-03-22T01:29:07.064Z,96113.75
2023-03-22T01:31:35.336Z,96109.50
2023-03-22T01:34:05.211Z,96101.41
2023-03-22T01:36:33.440Z,96103.97
2023-03-22T01:39:01.666Z,96095.25
2023-03-22T01:41:29.981Z,96093.22
2023-03-22T01:44:12.271Z,96098.06
2023-03-22T01:46:41.947Z,96097.41
2023-03-22T01:49:16.100Z,96100.72
2023-03-22T01:51:45.933Z,96099.84
2023-03-22T01:54:18.273Z,96101.78
2023-03-22T01:56:46.868Z,96092.69
2023-03-22T01:59:16.124Z,96087.16
2023-03-22T02:01:47.085Z,96084.78
2023-03-22T02:04:19.960Z,96094.00
2023-03-22T02:06:48.601Z,96093.94
2023-03-22T02:09:21.919Z,96085.13
2023-03-22T02:11:52.437Z,96090.25
2023-03-22T02:14:42.770Z,96077.53
2023-03-22T02:17:20.916Z,96082.78
2023-03-22T02:20:22.731Z,96076.88
2023-03-22T02:23:19.358Z,96082.63
2023-03-22T02:26:27.226Z,96081.75
2023-03-22T02:28:57.437Z,96074.66
2023-03-22T02:32:10.206Z,96081.69
2023-03-22T02:35:35.797Z,96081.00
2023-03-22T02:38:25.204Z,96082.84
2023-03-22T02:40:57.935Z,96074.03
2023-03-22T02:43:34.286Z,96076.81
2023-03-22T02:46:06.844Z,96076.88
2023-03-22T02:48:39.484Z,96083.94
2023-03-22T02:51:11.144Z,96078.75
2023-03-22T02:53:43.210Z,96073.88
2023-03-22T02:56:14.405Z,96079.00
2023-03-22T02:58:46.604Z,96082.03
2023-03-22T03:01:20.017Z,96086.50
2023-03-22T03:03:50.504Z,96085.69
2023-03-22T03:06:21.301Z,96084.50
2023-03-22T03:08:51.840Z,96091.00
2023-03-22T03:11:22.292Z,96090.28
2023-03-22T03:13:50.809Z,96086.72
2023-03-22T03:16:22.052Z,96086.34
2023-03-22T03:18:54.000Z,96085.06
2023-03-22T03:21:30.046Z,96082.78
2023-03-22T03:24:07.051Z,96078.75
2023-03-22T03:26:40.608Z,96080.31
2023-03-22T03:29:13.112Z,96082.31
2023-03-22T03:31:44.650Z,96083.78
2023-03-22T03:34:17.761Z,96074.34
2023-03-22T03:36:50.796Z,96076.09
2023-03-22T03:39:19.806Z,96071.03
2023-03-22T03:41:51.270Z,96069.28
2023-03-22T03:44:20.159Z,96074.97
2023-03-22T03:46:49.177Z,96071.31
2023-03-22T03:49:17.770Z,96082.09
2023-03-22T03:51:48.260Z,96076.88
2023-03-22T03:54:16.552Z,96081.19
2023-03-22T03:56:44.831Z,96081.84
2023-03-22T03:59:15.843Z,96082.31
2023-03-22T04:01:50.406Z,96080.13
2023-03-22T04:04:19.485Z,96079.84
2023-03-22T04:06:47.782Z,96078.47
2023-03-22T04:09:16.191Z,96072.81
2023-03-22T04:11:44.434Z,96069.38
2023-03-22T04:14:14.027Z,96072.88
2023-03-22T04:16:42.371Z,96078.53
2023-03-22T04:19:11.052Z,96072.28
2023-03-22T04:21:39.353Z,96079.34
2023-03-22T04:24:08.364Z,96074.56
2023-03-22T04:26:36.657Z,96079.59
2023-03-22T04:29:05.479Z,96077.63
2023-03-22T04:31:35.735Z,96068.34
2023-03-22T04:34:05.758Z,96070.09
2023-03-22T04:36:36.389Z,96073.75
2023-03-22T04:39:05.994Z,96063.50
2023-03-22T04:41:34.348Z,96077.88
2023-03-22T04:44:03.697Z,96066.81
2023-03-22T04:46:32.992Z,96080.41
2023-03-22T04:49:03.376Z,96072.16
2023-03-22T04:51:32.142Z,96074.94
2023-03-22T04:54:00.594Z,96073.13
2023-03-22T04:56:28.879Z,96071.19
2023-03-22T04:58:57.152Z,96069.06
2023-03-22T05:01:25.465Z,96075.69
2023-03-22T05:03:53.754Z,96069.28
2023-03-22T05:06:23.347Z,96072.03
2023-03-22T05:08:51.593Z,96072.09
2023-03-22T05:11:20.351Z,96073.88
2023-03-22T05:13:48.623Z,96077.88
2023-03-22T05:16:16.948Z,96078.06
2023-03-22T05:18:45.556Z,96081.22
2023-03-22T05:21:15.405Z,96079.53
2023-03-22T05:23:46.277Z,96079.50
2023-03-22T05:26:15.832Z,96077.72
2023-03-22T05:28:44.294Z,96086.66
2023-03-22T05:31:14.783Z,96085.63
2023-03-22T05:33:43.240Z,96085.56
2023-03-22T05:36:12.429Z,96089.34
2023-03-22T05:38:41.337Z,96094.19
2023-03-22T05:41:11.046Z,96091.78
2023-03-22T05:43:39.573Z,96089.00
2023-03-22T05:46:08.492Z,96089.13
2023-03-22T05:48:37.034Z,96086.13
2023-03-22T05:51:07.317Z,96082.25
2023-03-22T05:53:36.116Z,96092.19
2023-03-22T05:56:04.739Z,96088.72
2023-03-22T05:58:35.089Z,96087.47
2023-03-22T06:01:07.252Z,96088.41
2023-03-22T06:03:35.945Z,96092.97
2023-03-22T06:06:06.732Z,96088.41
2023-03-22T06:08:35.259Z,96098.47
2023-03-22T06:11:03.552Z,96092.28
2023-03-22T06:13:32.006Z,96082.59
2023-03-22T06:16:02.450Z,96087.97
2023-03-22T06:18:31.328Z,96080.47
2023-03-22T06:20:59.666Z,96084.88
2023-03-22T06:23:28.091Z,96087.06
2023-03-22T06:25:56.536Z,96082.75
2023-03-22T06:28:29.510Z,96091.75
2023-03-22T06:30:57.925Z,96079.47
2023-03-22T06:33:27.529Z,96080.00
2023-03-22T06:35:55.818Z,96082.13
2023-03-22T06:38:24.103Z,96083.13
2023-03-22T06:40:52.385Z,96079.66
2023-03-22T06:43:20.711Z,96084.34
2023-03-22T06:45:49.482Z,96084.81
2023-03-22T06:48:17.793Z,96083.28
2023-03-22T06:50:47.426Z,96080.75
2023-03-22T06:53:15.740Z,96080.28
2023-03-22T06:55:43.963Z,96090.41
2023-03-22T06:58:12.567Z,96085.38
2023-03-22T07:00:41.561Z,96086.50
2023-03-22T07:03:10.077Z,96089.88
2023-03-22T07:05:38.332Z,96090.78
2023-03-22T07:08:08.172Z,96093.41
2023-03-22T07:10:36.483Z,96090.53
2023-03-22T07:13:04.750Z,96088.72
2023-03-22T07:15:34.454Z,96095.34
2023-03-22T07:18:03.219Z,96091.06
2023-03-22T07:20:32.952Z,96090.03
2023-03-22T07:23:01.196Z,96087.16
2023-03-22T07:25:30.948Z,96096.47
2023-03-22T07:28:00.500Z,96094.59
2023-03-22T07:30:28.746Z,96093.13
2023-03-22T07:32:56.971Z,96089.88
2023-03-22T07:35:26.966Z,96094.94
2023-03-22T07:37:55.328Z,96097.03
2023-03-22T07:40:23.745Z,96091.84
2023-03-22T07:42:54.848Z,96097.44
2023-03-22T07:45:24.335Z,96091.84
2023-03-22T07:47:52.649Z,96096.16
2023-03-22T07:50:21.023Z,96095.78
2023-03-22T07:52:49.465Z,96091.25
2023-03-22T07:55:17.829Z,96087.56
2023-03-22T07:57:46.392Z,96089.84
2023-03-22T08:00:17.251Z,96087.59
2023-03-22T08:02:46.232Z,96088.88
2023-03-22T08:05:14.595Z,96093.78
2023-03-22T08:07:43.168Z,96089.69
2023-03-22T08:10:12.027Z,96090.50
2023-03-22T08:12:40.350Z,96081.66
2023-03-22T08:15:10.251Z,96080.81
2023-03-22T08:17:40.038Z,96076.06
2023-03-22T08:20:10.008Z,96077.28
2023-03-22T08:22:38.371Z,96092.75
2023-03-22T08:25:07.397Z,96091.69
2023-03-22T08:27:35.649Z,96093.56
2023-03-22T08:30:05.667Z,96088.03
2023-03-22T08:32:34.781Z,96081.84
2023-03-22T08:35:06.420Z,96078.09
2023-03-22T08:37:34.724Z,96080.38
2023-03-22T08:40:06.525Z,96085.91
2023-03-22T08:42:34.898Z,96079.25
2023-03-22T08:45:03.372Z,96083.75
2023-03-22T08:47:31.657Z,96082.75
2023-03-22T08:49:59.974Z,96076.94
2023-03-22T08:52:30.145Z,96070.81
2023-03-22T08:54:58.487Z,96080.63
2023-03-22T08:57:27.668Z,96068.03
2023-03-22T08:59:57.597Z,96078.69
2023-03-22T09:02:26.201Z,96069.13
2023-03-22T09:04:54.892Z,96067.38
2023-03-22T09:07:24.304Z,96069.75
2023-03-22T09:09:53.952Z,96068.09
2023-03-22T09:12:22.181Z,96070.59
2023-03-22T09:14:50.564Z,96063.59
2023-03-22T09:17:21.315Z,96060.72
2023-03-22T09:19:55.664Z,96063.97
2023-03-22T09:22:31.032Z,96067.50
2023-03-22T09:25:00.704Z,96064.53
2023-03-22T09:27:29.105Z,96058.22
2023-03-22T09:29:57.560Z,96058.31
2023-03-22T09:32:25.953Z,96045.56
2023-03-22T09:34:54.394Z,96044.84
2023-03-22T09:40:12.865Z,96047.41
2023-03-22T09:42:42.984Z,96040.38
2023-03-22T09:45:16.325Z,96033.41
2023-03-22T09:47:46.733Z,96044.06
2023-03-22T09:50:15.389Z,96038.25
2023-03-22T09:52:45.083Z,96032.13
2023-03-22T09:55:21.044Z,96020.53
2023-03-22T09:57:55.489Z,96029.34
2023-03-22T10:00:29.226Z,96024.25
2023-03-22T10:03:03.414Z,96016.97
2023-03-22T10:05:37.177Z,96007.59
2023-03-22T10:08:26.206Z,96004.69
2023-03-22T10:10:55.884Z,96002.06
2023-03-22T10:13:28.126Z,96013.31
2023-03-22T10:15:59.183Z,95993.78
2023-03-22T10:18:29.952Z,96010.19
2023-03-22T10:21:01.540Z,95992.22
2023-03-22T10:23:32.776Z,96004.47
2023-03-22T10:26:04.156Z,96009.22
2023-03-22T10:28:36.938Z,95992.75
2023-03-22T10:31:06.038Z,95999.09
2023-03-22T10:33:39.574Z,95991.59
2023-03-22T10:36:13.778Z,95976.69
2023-03-22T10:38:46.525Z,95989.03
2023-03-22T10:41:18.563Z,95984.09
2023-03-22T10:43:49.910Z,95985.03
2023-03-22T10:46:21.146Z,95989.84
2023-03-22T10:48:51.307Z,95983.94
2023-03-22T10:51:25.895Z,95983.94
2023-03-22T10:53:56.153Z,95980.22
2023-03-22T10:56:26.205Z,95979.75
2023-03-22T10:58:56.409Z,95981.78
2023-03-22T11:01:29.989Z,95982.75
2023-03-22T11:04:01.018Z,95984.63
2023-03-22T11:06:32.911Z,95977.38
2023-03-22T11:09:04.078Z,95985.06
2023-03-22T11:11:49.074Z,95986.16
2023-03-22T11:14:20.783Z,95977.09
2023-03-22T11:16:53.968Z,95974.88
2023-03-22T11:19:26.281Z,95977.34
2023-03-22T11:21:55.583Z,95975.75
2023-03-22T11:24:25.917Z,95971.34
2023-03-22T11:27:06.852Z,95973.16
2023-03-22T11:29:41.770Z,95963.84
2023-03-22T11:32:23.148Z,95975.72
2023-03-22T11:35:00.836Z,95962.25
2023-03-22T11:37:29.436Z,95961.50
2023-03-22T11:40:01.756Z,95950.03
2023-03-22T11:42:31.467Z,95944.25
2023-03-22T11:44:59.781Z,95947.91
2023-03-22T11:47:31.778Z,95943.63
2023-03-22T11:50:05.475Z,95941.19
2023-03-22T11:52:33.893Z,95941.41
2023-03-22T11:55:02.582Z,95940.47
2023-03-22T11:57:33.034Z,95940.16
2023-03-22T12:00:02.034Z,95935.41
2023-03-22T12:05:21.787Z,95925.75
2023-03-22T12:07:53.445Z,95916.59
2023-03-22T12:10:26.422Z,95910.56
2023-03-22T12:12:59.642Z,95905.06
2023-03-22T12:15:31.083Z,95885.72
2023-03-22T12:18:06.016Z,95904.97
2023-03-22T12:20:41.618Z,95896.56
2023-03-22T12:23:15.425Z,95897.81
2023-03-22T12:25:47.905Z,95888.59
2023-03-22T12:28:19.916Z,95881.44
2023-03-22T12:30:50.612Z,95880.28
2023-03-22T12:33:21.800Z,95871.06
2023-03-22T12:35:52.624Z,95880.25
2023-03-22T12:38:27.968Z,95861.41
2023-03-22T12:40:59.093Z,95863.22
2023-03-22T12:43:39.379Z,95861.72
2023-03-22T12:46:11.718Z,95860.16
2023-03-22T12:48:44.594Z,95851.91
2023-03-22T12:51:15.660Z,95845.13
2023-03-22T12:53:46.288Z,95849.03
2023-03-22T12:56:16.706Z,95846.91
2023-03-22T12:58:46.765Z,95858.50
2023-03-22T13:01:23.080Z,95839.47
2023-03-22T13:03:54.662Z,95844.53
2023-03-22T13:06:34.972Z,95848.22
2023-03-22T13:09:21.849Z,95844.94
2023-03-22T13:12:28.361Z,95837.41
2023-03-22T13:15:00.573Z,95836.50
2023-03-22T13:17:46.940Z,95825.38
2023-03-22T13:20:38.462Z,95836.25
2023-03-22T13:23:27.162Z,95837.91
2023-03-22T13:26:01.614Z,95834.09
2023-03-22T13:28:30.966Z,95821.22
2023-03-22T13:31:01.647Z,95825.84
2023-03-22T13:33:31.330Z,95827.06
2023-03-22T13:36:01.166Z,95817.28
2023-03-22T13:38:31.382Z,95811.50
2023-03-22T13:41:02.917Z,95815.69
2023-03-22T13:43:34.277Z,95810.19
2023-03-22T13:46:51.326Z,95812.25
2023-03-22T13:49:56.009Z,95813.75
2023-03-22T13:52:29.307Z,95801.75
2023-03-22T13:54:59.421Z,95813.16
2023-03-22T13:57:46.793Z,95809.28
2023-03-22T14:00:34.301Z,95811.22
2023-03-22T14:03:04.661Z,95802.75
2023-03-22T14:05:33.317Z,95798.44
2023-03-22T14:08:04.305Z,95794.69
2023-03-22T14:10:38.801Z,95785.16
2023-03-22T14:13:15.874Z,95791.94
2023-03-22T14:15:48.153Z,95794.00
2023-03-22T14:18:19.284Z,95787.69
2023-03-22T14:20:49.436Z,95779.59
